sensor_id;sensor_type;location;lat;lon;timestamp;P1;durP1;ratioP1;P2;durP2;ratioP2
10725;SDS011;5414;59.782;16.378;2022-07-23T00:01:25;2.37;;;1.93;;
10725;SDS011;5414;59.782;16.378;2022-07-23T00:03:52;4.00;;;2.00;;
10725;SDS011;5414;59.782;16.378;2022-07-23T00:06:19;2.40;;;2.00;;
10725;SDS011;5414;59.782;16.378;2022-07-23T00:08:46;2.37;;;1.67;;
10725;SDS011;5414;59.782;16.378;2022-07-23T00:11:12;1.83;;;1.73;;
10725;SDS011;5414;59.782;16.378;2022-07-23T00:13:38;2.20;;;1.90;;
10725;SDS011;5414;59.782;16.378;2022-07-23T00:16:04;1.90;;;1.80;;
10725;SDS011;5414;59.782;16.378;2022-07-23T00:18:31;2.43;;;1.80;;
10725;SDS011;5414;59.782;16.378;2022-07-23T00:20:57;1.90;;;1.80;;
10725;SDS011;5414;59.782;16.378;2022-07-23T00:23:23;2.50;;;1.90;;
10725;SDS011;5414;59.782;16.378;2022-07-23T00:25:50;1.80;;;1.70;;
10725;SDS011;5414;59.782;16.378;2022-07-23T00:28:16;2.60;;;2.10;;
10725;SDS011;5414;59.782;16.378;2022-07-23T00:30:43;2.60;;;2.17;;
10725;SDS011;5414;59.782;16.378;2022-07-23T00:33:09;2.33;;;2.00;;
10725;SDS011;5414;59.782;16.378;2022-07-23T00:35:37;2.23;;;2.00;;
10725;SDS011;5414;59.782;16.378;2022-07-23T00:38:05;2.60;;;2.10;;
10725;SDS011;5414;59.782;16.378;2022-07-23T00:40:32;2.10;;;2.00;;
10725;SDS011;5414;59.782;16.378;2022-07-23T00:42:58;2.70;;;1.90;;
10725;SDS011;5414;59.782;16.378;2022-07-23T00:45:24;1.97;;;1.87;;
10725;SDS011;5414;59.782;16.378;2022-07-23T00:47:50;3.30;;;2.20;;
10725;SDS011;5414;59.782;16.378;2022-07-23T00:50:16;2.00;;;1.90;;
10725;SDS011;5414;59.782;16.378;2022-07-23T00:52:42;2.17;;;1.97;;
10725;SDS011;5414;59.782;16.378;2022-07-23T00:55:09;2.43;;;2.00;;
10725;SDS011;5414;59.782;16.378;2022-07-23T00:57:36;1.93;;;1.80;;
10725;SDS011;5414;59.782;16.378;2022-07-23T01:00:03;2.53;;;2.17;;
10725;SDS011;5414;59.782;16.378;2022-07-23T01:02:29;2.00;;;1.80;;
10725;SDS011;5414;59.782;16.378;2022-07-23T01:04:55;3.63;;;1.90;;
10725;SDS011;5414;59.782;16.378;2022-07-23T01:07:21;2.13;;;1.70;;
10725;SDS011;5414;59.782;16.378;2022-07-23T01:09:47;2.83;;;2.03;;
10725;SDS011;5414;59.782;16.378;2022-07-23T01:12:14;1.70;;;1.60;;
10725;SDS011;5414;59.782;16.378;2022-07-23T01:14:40;1.90;;;1.80;;
10725;SDS011;5414;59.782;16.378;2022-07-23T01:17:06;2.90;;;1.97;;
10725;SDS011;5414;59.782;16.378;2022-07-23T01:19:32;1.90;;;1.80;;
10725;SDS011;5414;59.782;16.378;2022-07-23T01:21:58;1.90;;;1.80;;
10725;SDS011;5414;59.782;16.378;2022-07-23T01:24:26;2.30;;;2.10;;
10725;SDS011;5414;59.782;16.378;2022-07-23T01:26:52;4.53;;;1.77;;
10725;SDS011;5414;59.782;16.378;2022-07-23T01:29:18;2.10;;;1.63;;
10725;SDS011;5414;59.782;16.378;2022-07-23T01:31:46;1.63;;;1.43;;
10725;SDS011;5414;59.782;16.378;2022-07-23T01:34:12;1.70;;;1.60;;
10725;SDS011;5414;59.782;16.378;2022-07-23T01:36:39;1.73;;;1.47;;
10725;SDS011;5414;59.782;16.378;2022-07-23T01:39:06;1.70;;;1.60;;
10725;SDS011;5414;59.782;16.378;2022-07-23T01:41:34;2.40;;;1.40;;
10725;SDS011;5414;59.782;16.378;2022-07-23T01:44:00;1.90;;;1.70;;
10725;SDS011;5414;59.782;16.378;2022-07-23T01:46:26;1.40;;;1.30;;
10725;SDS011;5414;59.782;16.378;2022-07-23T01:48:52;2.10;;;1.40;;
10725;SDS011;5414;59.782;16.378;2022-07-23T01:51:18;1.63;;;1.30;;
10725;SDS011;5414;59.782;16.378;2022-07-23T01:53:44;2.10;;;1.57;;
10725;SDS011;5414;59.782;16.378;2022-07-23T01:56:10;1.27;;;1.17;;
10725;SDS011;5414;59.782;16.378;2022-07-23T01:58:36;1.83;;;1.50;;
10725;SDS011;5414;59.782;16.378;2022-07-23T02:01:02;1.30;;;1.20;;
10725;SDS011;5414;59.782;16.378;2022-07-23T02:03:28;1.40;;;1.30;;
10725;SDS011;5414;59.782;16.378;2022-07-23T02:05:54;1.83;;;1.47;;
10725;SDS011;5414;59.782;16.378;2022-07-23T02:08:20;1.10;;;1.10;;
10725;SDS011;5414;59.782;16.378;2022-07-23T02:10:46;1.57;;;1.17;;
10725;SDS011;5414;59.782;16.378;2022-07-23T02:13:13;1.30;;;1.20;;
10725;SDS011;5414;59.782;16.378;2022-07-23T02:15:39;1.60;;;1.50;;
10725;SDS011;5414;59.782;16.378;2022-07-23T02:18:05;1.57;;;1.20;;
10725;SDS011;5414;59.782;16.378;2022-07-23T02:20:33;1.40;;;1.30;;
10725;SDS011;5414;59.782;16.378;2022-07-23T02:22:59;1.23;;;1.13;;
10725;SDS011;5414;59.782;16.378;2022-07-23T02:25:25;1.30;;;1.20;;
10725;SDS011;5414;59.782;16.378;2022-07-23T02:27:51;2.37;;;1.30;;
10725;SDS011;5414;59.782;16.378;2022-07-23T02:30:17;1.47;;;1.10;;
10725;SDS011;5414;59.782;16.378;2022-07-23T02:32:43;1.60;;;1.50;;
10725;SDS011;5414;59.782;16.378;2022-07-23T02:35:09;1.40;;;1.30;;
10725;SDS011;5414;59.782;16.378;2022-07-23T02:37:35;1.40;;;1.27;;
10725;SDS011;5414;59.782;16.378;2022-07-23T02:40:01;1.10;;;1.10;;
10725;SDS011;5414;59.782;16.378;2022-07-23T02:42:28;1.50;;;1.13;;
10725;SDS011;5414;59.782;16.378;2022-07-23T02:44:54;1.10;;;1.00;;
10725;SDS011;5414;59.782;16.378;2022-07-23T02:47:20;1.27;;;1.20;;
10725;SDS011;5414;59.782;16.378;2022-07-23T02:49:46;1.13;;;1.10;;
10725;SDS011;5414;59.782;16.378;2022-07-23T02:52:12;1.87;;;1.10;;
10725;SDS011;5414;59.782;16.378;2022-07-23T02:54:38;1.20;;;1.07;;
10725;SDS011;5414;59.782;16.378;2022-07-23T02:57:04;0.93;;;0.90;;
10725;SDS011;5414;59.782;16.378;2022-07-23T02:59:30;1.57;;;0.90;;
10725;SDS011;5414;59.782;16.378;2022-07-23T03:01:57;0.93;;;0.93;;
10725;SDS011;5414;59.782;16.378;2022-07-23T03:04:23;1.70;;;1.07;;
10725;SDS011;5414;59.782;16.378;2022-07-23T03:06:49;0.80;;;0.80;;
10725;SDS011;5414;59.782;16.378;2022-07-23T03:09:15;0.90;;;0.90;;
10725;SDS011;5414;59.782;16.378;2022-07-23T03:11:41;0.80;;;0.80;;
10725;SDS011;5414;59.782;16.378;2022-07-23T03:14:07;1.90;;;1.00;;
10725;SDS011;5414;59.782;16.378;2022-07-23T03:16:33;1.40;;;0.80;;
10725;SDS011;5414;59.782;16.378;2022-07-23T03:18:59;1.40;;;1.03;;
10725;SDS011;5414;59.782;16.378;2022-07-23T03:21:25;0.97;;;0.90;;
10725;SDS011;5414;59.782;16.378;2022-07-23T03:23:53;1.10;;;1.00;;
10725;SDS011;5414;59.782;16.378;2022-07-23T03:26:19;1.00;;;1.00;;
10725;SDS011;5414;59.782;16.378;2022-07-23T03:28:45;1.07;;;0.90;;
10725;SDS011;5414;59.782;16.378;2022-07-23T03:31:11;1.10;;;0.87;;
10725;SDS011;5414;59.782;16.378;2022-07-23T03:33:36;2.17;;;1.00;;
10725;SDS011;5414;59.782;16.378;2022-07-23T03:36:04;2.60;;;1.00;;
10725;SDS011;5414;59.782;16.378;2022-07-23T03:38:30;1.27;;;1.17;;
10725;SDS011;5414;59.782;16.378;2022-07-23T03:40:56;1.97;;;1.10;;
10725;SDS011;5414;59.782;16.378;2022-07-23T03:43:22;0.90;;;0.90;;
10725;SDS011;5414;59.782;16.378;2022-07-23T03:45:50;1.10;;;1.00;;
10725;SDS011;5414;59.782;16.378;2022-07-23T03:48:16;2.10;;;0.90;;
10725;SDS011;5414;59.782;16.378;2022-07-23T03:50:42;1.20;;;1.10;;
10725;SDS011;5414;59.782;16.378;2022-07-23T03:53:08;1.13;;;0.93;;
10725;SDS011;5414;59.782;16.378;2022-07-23T03:55:34;1.37;;;0.90;;
10725;SDS011;5414;59.782;16.378;2022-07-23T03:58:01;1.00;;;1.00;;
10725;SDS011;5414;59.782;16.378;2022-07-23T04:00:27;1.10;;;1.00;;
10725;SDS011;5414;59.782;16.378;2022-07-23T04:02:53;1.43;;;0.87;;
10725;SDS011;5414;59.782;16.378;2022-07-23T04:05:19;1.17;;;0.90;;
10725;SDS011;5414;59.782;16.378;2022-07-23T04:07:45;1.67;;;1.20;;
10725;SDS011;5414;59.782;16.378;2022-07-23T04:10:11;0.93;;;0.93;;
10725;SDS011;5414;59.782;16.378;2022-07-23T04:12:37;2.87;;;1.10;;
10725;SDS011;5414;59.782;16.378;2022-07-23T04:15:03;1.00;;;0.90;;
10725;SDS011;5414;59.782;16.378;2022-07-23T04:17:29;1.20;;;1.10;;
10725;SDS011;5414;59.782;16.378;2022-07-23T04:19:56;0.97;;;0.97;;
10725;SDS011;5414;59.782;16.378;2022-07-23T04:22:22;0.80;;;0.80;;
10725;SDS011;5414;59.782;16.378;2022-07-23T04:24:48;1.50;;;0.80;;
10725;SDS011;5414;59.782;16.378;2022-07-23T04:27:15;1.60;;;1.10;;
10725;SDS011;5414;59.782;16.378;2022-07-23T04:29:41;1.43;;;0.90;;
10725;SDS011;5414;59.782;16.378;2022-07-23T04:32:07;1.27;;;1.13;;
10725;SDS011;5414;59.782;16.378;2022-07-23T04:34:33;0.90;;;0.90;;
10725;SDS011;5414;59.782;16.378;2022-07-23T04:36:59;0.80;;;0.80;;
10725;SDS011;5414;59.782;16.378;2022-07-23T04:39:25;1.53;;;0.80;;
10725;SDS011;5414;59.782;16.378;2022-07-23T04:41:51;1.23;;;0.93;;
10725;SDS011;5414;59.782;16.378;2022-07-23T04:44:17;2.47;;;0.90;;
10725;SDS011;5414;59.782;16.378;2022-07-23T04:46:43;0.90;;;0.90;;
10725;SDS011;5414;59.782;16.378;2022-07-23T04:49:09;0.83;;;0.83;;
10725;SDS011;5414;59.782;16.378;2022-07-23T04:51:35;2.23;;;1.13;;
10725;SDS011;5414;59.782;16.378;2022-07-23T04:54:01;1.70;;;1.00;;
10725;SDS011;5414;59.782;16.378;2022-07-23T04:56:28;1.13;;;1.03;;
10725;SDS011;5414;59.782;16.378;2022-07-23T04:58:55;1.10;;;0.87;;
10725;SDS011;5414;59.782;16.378;2022-07-23T05:01:21;1.20;;;1.10;;
10725;SDS011;5414;59.782;16.378;2022-07-23T05:03:47;2.63;;;1.10;;
10725;SDS011;5414;59.782;16.378;2022-07-23T05:06:13;0.80;;;0.80;;
10725;SDS011;5414;59.782;16.378;2022-07-23T05:08:39;1.00;;;0.90;;
10725;SDS011;5414;59.782;16.378;2022-07-23T05:11:05;1.00;;;0.80;;
10725;SDS011;5414;59.782;16.378;2022-07-23T05:13:31;1.33;;;0.80;;
10725;SDS011;5414;59.782;16.378;2022-07-23T05:15:57;1.43;;;0.90;;
10725;SDS011;5414;59.782;16.378;2022-07-23T05:18:23;1.17;;;0.97;;
10725;SDS011;5414;59.782;16.378;2022-07-23T05:20:49;0.93;;;0.93;;
10725;SDS011;5414;59.782;16.378;2022-07-23T05:23:16;0.87;;;0.87;;
10725;SDS011;5414;59.782;16.378;2022-07-23T05:25:42;0.90;;;0.90;;
10725;SDS011;5414;59.782;16.378;2022-07-23T05:28:08;1.00;;;1.00;;
10725;SDS011;5414;59.782;16.378;2022-07-23T05:30:34;1.33;;;0.77;;
10725;SDS011;5414;59.782;16.378;2022-07-23T05:33:00;1.00;;;0.90;;
10725;SDS011;5414;59.782;16.378;2022-07-23T05:35:26;1.07;;;0.97;;
10725;SDS011;5414;59.782;16.378;2022-07-23T05:37:52;0.93;;;0.80;;
10725;SDS011;5414;59.782;16.378;2022-07-23T05:40:18;0.90;;;0.90;;
10725;SDS011;5414;59.782;16.378;2022-07-23T05:42:44;1.83;;;1.13;;
10725;SDS011;5414;59.782;16.378;2022-07-23T05:45:11;1.90;;;1.20;;
10725;SDS011;5414;59.782;16.378;2022-07-23T05:47:43;1.47;;;0.93;;
10725;SDS011;5414;59.782;16.378;2022-07-23T05:50:10;1.00;;;1.00;;
10725;SDS011;5414;59.782;16.378;2022-07-23T05:52:36;3.97;;;1.27;;
10725;SDS011;5414;59.782;16.378;2022-07-23T05:55:02;1.77;;;1.00;;
10725;SDS011;5414;59.782;16.378;2022-07-23T05:57:28;1.10;;;1.00;;
10725;SDS011;5414;59.782;16.378;2022-07-23T05:59:54;1.93;;;1.30;;
10725;SDS011;5414;59.782;16.378;2022-07-23T06:02:20;1.10;;;1.10;;
10725;SDS011;5414;59.782;16.378;2022-07-23T06:04:46;0.97;;;0.97;;
10725;SDS011;5414;59.782;16.378;2022-07-23T06:07:12;1.10;;;1.10;;
10725;SDS011;5414;59.782;16.378;2022-07-23T06:09:38;1.27;;;1.17;;
10725;SDS011;5414;59.782;16.378;2022-07-23T06:12:04;1.27;;;1.17;;
10725;SDS011;5414;59.782;16.378;2022-07-23T06:14:30;0.93;;;0.93;;
10725;SDS011;5414;59.782;16.378;2022-07-23T06:16:56;1.10;;;1.07;;
10725;SDS011;5414;59.782;16.378;2022-07-23T06:19:22;1.47;;;1.30;;
10725;SDS011;5414;59.782;16.378;2022-07-23T06:21:48;1.50;;;1.40;;
10725;SDS011;5414;59.782;16.378;2022-07-23T06:24:14;1.20;;;1.20;;
10725;SDS011;5414;59.782;16.378;2022-07-23T06:26:40;1.23;;;1.20;;
10725;SDS011;5414;59.782;16.378;2022-07-23T06:29:06;1.40;;;1.30;;
10725;SDS011;5414;59.782;16.378;2022-07-23T06:31:32;3.03;;;1.53;;
10725;SDS011;5414;59.782;16.378;2022-07-23T06:33:58;1.50;;;1.40;;
10725;SDS011;5414;59.782;16.378;2022-07-23T06:36:25;1.93;;;1.30;;
10725;SDS011;5414;59.782;16.378;2022-07-23T06:38:51;1.40;;;1.30;;
10725;SDS011;5414;59.782;16.378;2022-07-23T06:41:17;1.40;;;1.30;;
10725;SDS011;5414;59.782;16.378;2022-07-23T06:43:43;1.67;;;1.40;;
10725;SDS011;5414;59.782;16.378;2022-07-23T06:46:09;1.57;;;1.40;;
10725;SDS011;5414;59.782;16.378;2022-07-23T06:48:36;2.83;;;1.40;;
10725;SDS011;5414;59.782;16.378;2022-07-23T06:51:02;1.43;;;1.33;;
10725;SDS011;5414;59.782;16.378;2022-07-23T06:53:28;1.30;;;1.20;;
10725;SDS011;5414;59.782;16.378;2022-07-23T06:55:54;2.27;;;1.40;;
10725;SDS011;5414;59.782;16.378;2022-07-23T06:58:20;1.47;;;1.37;;
10725;SDS011;5414;59.782;16.378;2022-07-23T07:00:46;1.60;;;1.47;;
10725;SDS011;5414;59.782;16.378;2022-07-23T07:03:12;1.23;;;1.10;;
10725;SDS011;5414;59.782;16.378;2022-07-23T07:05:38;3.27;;;1.70;;
10725;SDS011;5414;59.782;16.378;2022-07-23T07:08:05;1.40;;;1.30;;
10725;SDS011;5414;59.782;16.378;2022-07-23T07:10:31;1.60;;;1.50;;
10725;SDS011;5414;59.782;16.378;2022-07-23T07:12:58;2.27;;;1.60;;
10725;SDS011;5414;59.782;16.378;2022-07-23T07:15:24;1.83;;;1.50;;
10725;SDS011;5414;59.782;16.378;2022-07-23T07:17:50;1.53;;;1.43;;
10725;SDS011;5414;59.782;16.378;2022-07-23T07:20:16;2.37;;;1.70;;
10725;SDS011;5414;59.782;16.378;2022-07-23T07:22:42;1.63;;;1.53;;
10725;SDS011;5414;59.782;16.378;2022-07-23T07:25:08;2.27;;;1.73;;
10725;SDS011;5414;59.782;16.378;2022-07-23T07:27:35;1.70;;;1.60;;
10725;SDS011;5414;59.782;16.378;2022-07-23T07:30:02;1.80;;;1.70;;
10725;SDS011;5414;59.782;16.378;2022-07-23T07:32:29;1.87;;;1.60;;
10725;SDS011;5414;59.782;16.378;2022-07-23T07:34:58;1.53;;;1.43;;
10725;SDS011;5414;59.782;16.378;2022-07-23T07:37:24;1.90;;;1.80;;
10725;SDS011;5414;59.782;16.378;2022-07-23T07:39:50;1.83;;;1.70;;
10725;SDS011;5414;59.782;16.378;2022-07-23T07:42:16;1.60;;;1.50;;
10725;SDS011;5414;59.782;16.378;2022-07-23T07:44:42;1.80;;;1.70;;
10725;SDS011;5414;59.782;16.378;2022-07-23T07:47:08;2.00;;;1.80;;
10725;SDS011;5414;59.782;16.378;2022-07-23T07:49:34;1.70;;;1.60;;
10725;SDS011;5414;59.782;16.378;2022-07-23T07:52:00;1.60;;;1.50;;
10725;SDS011;5414;59.782;16.378;2022-07-23T07:54:26;1.73;;;1.63;;
10725;SDS011;5414;59.782;16.378;2022-07-23T07:56:52;1.60;;;1.50;;
10725;SDS011;5414;59.782;16.378;2022-07-23T07:59:18;1.70;;;1.60;;
10725;SDS011;5414;59.782;16.378;2022-07-23T08:01:44;1.60;;;1.50;;
10725;SDS011;5414;59.782;16.378;2022-07-23T08:04:10;2.10;;;1.90;;
10725;SDS011;5414;59.782;16.378;2022-07-23T08:06:36;2.00;;;1.80;;
10725;SDS011;5414;59.782;16.378;2022-07-23T08:09:03;1.50;;;1.40;;
10725;SDS011;5414;59.782;16.378;2022-07-23T08:11:29;1.80;;;1.70;;
10725;SDS011;5414;59.782;16.378;2022-07-23T08:13:55;1.70;;;1.53;;
10725;SDS011;5414;59.782;16.378;2022-07-23T08:16:21;1.63;;;1.53;;
10725;SDS011;5414;59.782;16.378;2022-07-23T08:18:47;1.90;;;1.80;;
10725;SDS011;5414;59.782;16.378;2022-07-23T08:21:13;1.70;;;1.60;;
10725;SDS011;5414;59.782;16.378;2022-07-23T08:23:40;1.87;;;1.77;;
10725;SDS011;5414;59.782;16.378;2022-07-23T08:26:06;1.67;;;1.57;;
10725;SDS011;5414;59.782;16.378;2022-07-23T08:28:32;1.97;;;1.80;;
10725;SDS011;5414;59.782;16.378;2022-07-23T08:30:58;1.70;;;1.60;;
10725;SDS011;5414;59.782;16.378;2022-07-23T08:33:25;2.20;;;2.00;;
10725;SDS011;5414;59.782;16.378;2022-07-23T08:35:51;2.63;;;1.90;;
10725;SDS011;5414;59.782;16.378;2022-07-23T08:38:21;2.03;;;1.83;;
10725;SDS011;5414;59.782;16.378;2022-07-23T08:40:48;2.37;;;2.17;;
10725;SDS011;5414;59.782;16.378;2022-07-23T08:43:17;2.60;;;2.40;;
10725;SDS011;5414;59.782;16.378;2022-07-23T08:45:44;3.10;;;2.80;;
10725;SDS011;5414;59.782;16.378;2022-07-23T08:48:11;3.20;;;3.00;;
10725;SDS011;5414;59.782;16.378;2022-07-23T08:50:38;2.80;;;2.60;;
10725;SDS011;5414;59.782;16.378;2022-07-23T08:53:07;3.10;;;2.90;;
10725;SDS011;5414;59.782;16.378;2022-07-23T08:55:33;2.77;;;2.50;;
10725;SDS011;5414;59.782;16.378;2022-07-23T08:58:00;2.80;;;2.60;;
10725;SDS011;5414;59.782;16.378;2022-07-23T09:00:26;5.07;;;2.97;;
10725;SDS011;5414;59.782;16.378;2022-07-23T09:02:52;2.63;;;2.40;;
10725;SDS011;5414;59.782;16.378;2022-07-23T09:05:19;2.77;;;2.30;;
10725;SDS011;5414;59.782;16.378;2022-07-23T09:10:36;2.23;;;2.13;;
10725;SDS011;5414;59.782;16.378;2022-07-23T09:13:21;2.60;;;2.40;;
10725;SDS011;5414;59.782;16.378;2022-07-23T09:15:48;2.47;;;2.20;;
10725;SDS011;5414;59.782;16.378;2022-07-23T09:18:15;2.30;;;2.20;;
10725;SDS011;5414;59.782;16.378;2022-07-23T09:20:42;2.43;;;2.23;;
10725;SDS011;5414;59.782;16.378;2022-07-23T09:23:08;3.03;;;2.20;;
10725;SDS011;5414;59.782;16.378;2022-07-23T09:25:34;2.00;;;1.87;;
10725;SDS011;5414;59.782;16.378;2022-07-23T09:28:01;2.50;;;2.30;;
10725;SDS011;5414;59.782;16.378;2022-07-23T09:30:31;2.73;;;2.20;;
10725;SDS011;5414;59.782;16.378;2022-07-23T09:33:03;2.17;;;1.97;;
10725;SDS011;5414;59.782;16.378;2022-07-23T09:38:15;1.97;;;1.87;;
10725;SDS011;5414;59.782;16.378;2022-07-23T09:40:41;1.70;;;1.60;;
10725;SDS011;5414;59.782;16.378;2022-07-23T09:43:08;2.10;;;1.90;;
10725;SDS011;5414;59.782;16.378;2022-07-23T09:45:34;1.90;;;1.80;;
10725;SDS011;5414;59.782;16.378;2022-07-23T09:48:13;1.90;;;1.80;;
10725;SDS011;5414;59.782;16.378;2022-07-23T09:50:40;2.07;;;1.67;;
10725;SDS011;5414;59.782;16.378;2022-07-23T09:53:07;1.60;;;1.50;;
10725;SDS011;5414;59.782;16.378;2022-07-23T09:55:34;1.90;;;1.60;;
10725;SDS011;5414;59.782;16.378;2022-07-23T09:58:07;3.40;;;1.50;;
10725;SDS011;5414;59.782;16.378;2022-07-23T10:00:42;1.63;;;1.53;;
10725;SDS011;5414;59.782;16.378;2022-07-23T10:03:11;1.50;;;1.40;;
10725;SDS011;5414;59.782;16.378;2022-07-23T10:05:38;2.73;;;1.50;;
10725;SDS011;5414;59.782;16.378;2022-07-23T10:08:08;3.20;;;1.60;;
10725;SDS011;5414;59.782;16.378;2022-07-23T10:10:36;2.20;;;1.30;;
10725;SDS011;5414;59.782;16.378;2022-07-23T10:13:02;1.73;;;1.20;;
10725;SDS011;5414;59.782;16.378;2022-07-23T10:15:44;2.70;;;1.20;;
10725;SDS011;5414;59.782;16.378;2022-07-23T10:18:10;1.43;;;1.30;;
10725;SDS011;5414;59.782;16.378;2022-07-23T10:20:37;1.83;;;1.20;;
10725;SDS011;5414;59.782;16.378;2022-07-23T10:23:15;1.50;;;1.40;;
10725;SDS011;5414;59.782;16.378;2022-07-23T10:25:57;1.47;;;1.23;;
10725;SDS011;5414;59.782;16.378;2022-07-23T10:28:39;1.20;;;1.20;;
10725;SDS011;5414;59.782;16.378;2022-07-23T10:31:17;1.50;;;1.40;;
10725;SDS011;5414;59.782;16.378;2022-07-23T10:38:53;1.20;;;1.20;;
10725;SDS011;5414;59.782;16.378;2022-07-23T10:41:33;2.00;;;1.30;;
10725;SDS011;5414;59.782;16.378;2022-07-23T10:44:13;1.53;;;1.43;;
10725;SDS011;5414;59.782;16.378;2022-07-23T10:49:43;1.37;;;1.20;;
10725;SDS011;5414;59.782;16.378;2022-07-23T10:52:16;1.63;;;1.53;;
10725;SDS011;5414;59.782;16.378;2022-07-23T10:54:46;2.27;;;1.30;;
10725;SDS011;5414;59.782;16.378;2022-07-23T10:57:14;1.27;;;1.17;;
10725;SDS011;5414;59.782;16.378;2022-07-23T11:02:41;1.63;;;1.40;;
10725;SDS011;5414;59.782;16.378;2022-07-23T11:05:08;1.43;;;1.33;;
10725;SDS011;5414;59.782;16.378;2022-07-23T11:07:35;1.50;;;1.40;;
10725;SDS011;5414;59.782;16.378;2022-07-23T11:10:02;1.40;;;1.30;;
10725;SDS011;5414;59.782;16.378;2022-07-23T11:17:27;1.33;;;1.10;;
10725;SDS011;5414;59.782;16.378;2022-07-23T11:25:11;1.40;;;1.30;;
10725;SDS011;5414;59.782;16.378;2022-07-23T11:30:03;1.50;;;1.40;;
10725;SDS011;5414;59.782;16.378;2022-07-23T11:32:30;1.47;;;1.37;;
10725;SDS011;5414;59.782;16.378;2022-07-23T11:34:58;1.30;;;1.20;;
10725;SDS011;5414;59.782;16.378;2022-07-23T11:37:31;2.27;;;1.30;;
10725;SDS011;5414;59.782;16.378;2022-07-23T11:39:58;1.70;;;1.60;;
10725;SDS011;5414;59.782;16.378;2022-07-23T11:42:24;1.53;;;1.43;;
10725;SDS011;5414;59.782;16.378;2022-07-23T11:44:52;1.60;;;1.50;;
10725;SDS011;5414;59.782;16.378;2022-07-23T11:47:22;1.40;;;1.30;;
10725;SDS011;5414;59.782;16.378;2022-07-23T11:49:55;2.40;;;1.30;;
10725;SDS011;5414;59.782;16.378;2022-07-23T11:52:22;1.40;;;1.30;;
10725;SDS011;5414;59.782;16.378;2022-07-23T11:57:18;1.40;;;1.30;;
10725;SDS011;5414;59.782;16.378;2022-07-23T11:59:45;1.40;;;1.30;;
10725;SDS011;5414;59.782;16.378;2022-07-23T12:02:11;1.60;;;1.50;;
10725;SDS011;5414;59.782;16.378;2022-07-23T12:04:42;1.40;;;1.30;;
10725;SDS011;5414;59.782;16.378;2022-07-23T12:09:53;1.83;;;1.47;;
10725;SDS011;5414;59.782;16.378;2022-07-23T12:12:19;1.40;;;1.30;;
10725;SDS011;5414;59.782;16.378;2022-07-23T12:17:14;1.93;;;1.10;;
10725;SDS011;5414;59.782;16.378;2022-07-23T12:19:40;1.80;;;1.70;;
10725;SDS011;5414;59.782;16.378;2022-07-23T12:22:06;1.50;;;1.37;;
10725;SDS011;5414;59.782;16.378;2022-07-23T12:24:51;2.00;;;1.70;;
10725;SDS011;5414;59.782;16.378;2022-07-23T12:27:19;1.70;;;1.60;;
10725;SDS011;5414;59.782;16.378;2022-07-23T12:29:46;1.83;;;1.73;;
10725;SDS011;5414;59.782;16.378;2022-07-23T12:34:44;1.70;;;1.60;;
10725;SDS011;5414;59.782;16.378;2022-07-23T12:37:26;1.43;;;1.30;;
10725;SDS011;5414;59.782;16.378;2022-07-23T12:39:52;3.67;;;1.63;;
10725;SDS011;5414;59.782;16.378;2022-07-23T12:42:18;1.93;;;1.70;;
10725;SDS011;5414;59.782;16.378;2022-07-23T12:45:07;2.30;;;1.80;;
10725;SDS011;5414;59.782;16.378;2022-07-23T12:47:52;2.00;;;1.90;;
10725;SDS011;5414;59.782;16.378;2022-07-23T12:50:31;1.57;;;1.47;;
10725;SDS011;5414;59.782;16.378;2022-07-23T12:58:24;1.60;;;1.50;;
10725;SDS011;5414;59.782;16.378;2022-07-23T13:01:01;1.90;;;1.80;;
10725;SDS011;5414;59.782;16.378;2022-07-23T13:03:35;1.73;;;1.63;;
10725;SDS011;5414;59.782;16.378;2022-07-23T13:06:02;2.47;;;1.80;;
10725;SDS011;5414;59.782;16.378;2022-07-23T13:08:29;1.80;;;1.70;;
10725;SDS011;5414;59.782;16.378;2022-07-23T13:10:55;1.73;;;1.60;;
10725;SDS011;5414;59.782;16.378;2022-07-23T13:13:25;1.90;;;1.70;;
10725;SDS011;5414;59.782;16.378;2022-07-23T13:15:52;1.67;;;1.57;;
10725;SDS011;5414;59.782;16.378;2022-07-23T13:18:18;2.30;;;2.10;;
10725;SDS011;5414;59.782;16.378;2022-07-23T13:20:45;1.63;;;1.53;;
10725;SDS011;5414;59.782;16.378;2022-07-23T13:23:12;2.40;;;1.77;;
10725;SDS011;5414;59.782;16.378;2022-07-23T13:25:38;2.43;;;1.90;;
10725;SDS011;5414;59.782;16.378;2022-07-23T13:28:04;1.63;;;1.53;;
10725;SDS011;5414;59.782;16.378;2022-07-23T13:30:30;1.40;;;1.30;;
10725;SDS011;5414;59.782;16.378;2022-07-23T13:32:56;1.50;;;1.40;;
10725;SDS011;5414;59.782;16.378;2022-07-23T13:35:22;1.67;;;1.57;;
10725;SDS011;5414;59.782;16.378;2022-07-23T13:37:49;1.60;;;1.50;;
10725;SDS011;5414;59.782;16.378;2022-07-23T13:40:15;1.53;;;1.40;;
10725;SDS011;5414;59.782;16.378;2022-07-23T13:42:41;1.40;;;1.30;;
10725;SDS011;5414;59.782;16.378;2022-07-23T13:45:07;1.50;;;1.40;;
10725;SDS011;5414;59.782;16.378;2022-07-23T13:47:33;1.57;;;1.47;;
10725;SDS011;5414;59.782;16.378;2022-07-23T13:49:59;1.30;;;1.30;;
10725;SDS011;5414;59.782;16.378;2022-07-23T13:52:25;1.50;;;1.40;;
10725;SDS011;5414;59.782;16.378;2022-07-23T13:54:51;1.43;;;1.33;;
10725;SDS011;5414;59.782;16.378;2022-07-23T13:57:19;1.57;;;1.30;;
10725;SDS011;5414;59.782;16.378;2022-07-23T13:59:45;1.60;;;1.50;;
10725;SDS011;5414;59.782;16.378;2022-07-23T14:02:11;1.50;;;1.40;;
10725;SDS011;5414;59.782;16.378;2022-07-23T14:04:38;1.90;;;1.70;;
10725;SDS011;5414;59.782;16.378;2022-07-23T14:07:04;2.07;;;1.60;;
10725;SDS011;5414;59.782;16.378;2022-07-23T14:09:30;2.27;;;1.73;;
10725;SDS011;5414;59.782;16.378;2022-07-23T14:12:00;2.13;;;1.60;;
10725;SDS011;5414;59.782;16.378;2022-07-23T14:14:26;1.53;;;1.43;;
10725;SDS011;5414;59.782;16.378;2022-07-23T14:16:52;1.80;;;1.70;;
10725;SDS011;5414;59.782;16.378;2022-07-23T14:19:18;1.63;;;1.50;;
10725;SDS011;5414;59.782;16.378;2022-07-23T14:21:44;1.90;;;1.60;;
10725;SDS011;5414;59.782;16.378;2022-07-23T14:24:10;1.70;;;1.60;;
10725;SDS011;5414;59.782;16.378;2022-07-23T14:26:36;1.53;;;1.43;;
10725;SDS011;5414;59.782;16.378;2022-07-23T14:29:02;2.50;;;1.63;;
10725;SDS011;5414;59.782;16.378;2022-07-23T14:31:28;1.60;;;1.50;;
10725;SDS011;5414;59.782;16.378;2022-07-23T14:33:54;1.63;;;1.53;;
10725;SDS011;5414;59.782;16.378;2022-07-23T14:36:20;1.73;;;1.57;;
10725;SDS011;5414;59.782;16.378;2022-07-23T14:38:46;1.90;;;1.67;;
10725;SDS011;5414;59.782;16.378;2022-07-23T14:41:12;1.50;;;1.40;;
10725;SDS011;5414;59.782;16.378;2022-07-23T14:43:38;1.90;;;1.80;;
10725;SDS011;5414;59.782;16.378;2022-07-23T14:46:05;1.70;;;1.60;;
10725;SDS011;5414;59.782;16.378;2022-07-23T14:48:31;1.73;;;1.63;;
10725;SDS011;5414;59.782;16.378;2022-07-23T14:50:57;1.67;;;1.50;;
10725;SDS011;5414;59.782;16.378;2022-07-23T14:53:23;1.60;;;1.50;;
10725;SDS011;5414;59.782;16.378;2022-07-23T14:55:49;1.33;;;1.23;;
10725;SDS011;5414;59.782;16.378;2022-07-23T14:58:15;1.50;;;1.40;;
10725;SDS011;5414;59.782;16.378;2022-07-23T15:00:41;1.60;;;1.50;;
10725;SDS011;5414;59.782;16.378;2022-07-23T15:03:07;1.40;;;1.30;;
10725;SDS011;5414;59.782;16.378;2022-07-23T15:05:33;1.63;;;1.30;;
10725;SDS011;5414;59.782;16.378;2022-07-23T15:07:59;1.40;;;1.30;;
10725;SDS011;5414;59.782;16.378;2022-07-23T15:10:25;1.00;;;1.00;;
10725;SDS011;5414;59.782;16.378;2022-07-23T15:12:51;1.50;;;1.40;;
10725;SDS011;5414;59.782;16.378;2022-07-23T15:15:17;1.37;;;1.27;;
10725;SDS011;5414;59.782;16.378;2022-07-23T15:17:43;1.37;;;1.27;;
10725;SDS011;5414;59.782;16.378;2022-07-23T15:20:09;1.30;;;1.20;;
10725;SDS011;5414;59.782;16.378;2022-07-23T15:22:36;1.27;;;1.17;;
10725;SDS011;5414;59.782;16.378;2022-07-23T15:25:02;1.40;;;1.30;;
10725;SDS011;5414;59.782;16.378;2022-07-23T15:27:28;1.30;;;1.20;;
10725;SDS011;5414;59.782;16.378;2022-07-23T15:29:54;1.20;;;1.20;;
10725;SDS011;5414;59.782;16.378;2022-07-23T15:32:20;1.50;;;1.40;;